x

St. Augustine, Fl (sauf1) Weather Station

9:00pm - Sat 28th Feb 2015 All times are EST. -5 hours from GMT.

  • Wind
    16mph, 18mph gusts
  • Air Temp 55°f
  • Sea Pressure 1030.8mb
  • St. Augustine, Fl
  • St. Augustine, Fl

More Historic Weather Station data

Upgrade to MSW Pro to gain access to the past 30 days of data for over 8000 Wavebouys and Weather Stations around the globe.

Join Pro

Comparision Forecast

View Surf forecast
   
Sat 02/28 9:00pm 16 18 mph 1030.8mb 55f
8:00pm 24 26 mph 1030.1mb 54f
7:00pm 18 22 mph 1029.6mb 54f
6:00pm 20 23 mph 1029.3mb 55f
5:00pm 13 15 mph 1028.9mb 56f
4:00pm 11 14 mph 1028.4mb 56f
3:00pm 14 16 mph 1028.8mb 56f
2:00pm 13 14 mph 1029.1mb 55f
1:00pm 16 18 mph 1030.2mb 55f
12:00pm 18 20 mph 1030.3mb 56f
11:00am 11 13 mph 1030.3mb 57f
10:00am 15 18 mph 1029.6mb 56f
9:00am 14 15 mph 1029.9mb 56f
8:00am 17 18 mph 1029.2mb 56f
7:00am 17 21 mph 1028.1mb 56f
6:00am 21 23 mph 1027.1mb 56f
5:00am 18 23 mph 1026.7mb 56f
4:00am 17 18 mph 1026.8mb 56f
3:00am 20 21 mph 1026.8mb 56f
2:00am 22 24 mph 1026.5mb 55f
1:00am 23 24 mph 1026.9mb 56f
12:00am 25 28 mph 1026.9mb 55f
Fri 02/27 11:00pm 25 28 mph 1027.2mb 55f
10:00pm 28 30 mph 1027.2mb 54f
9:00pm 28 31 mph 1026.7mb 54f
8:00pm 26 28 mph 1026.2mb 53f
7:00pm 28 30 mph 1026.1mb 52f
6:00pm 25 30 mph 1025.8mb 51f
5:00pm 28 30 mph 1025.7mb 50f
4:00pm 29 31 mph 1025.2mb 49f
3:00pm 28 30 mph 1025.5mb 50f
2:00pm 26 31 mph 1025.7mb 50f
1:00pm 26 29 mph 1026.2mb 49f
12:00pm 26 30 mph 1026.3mb 49f
11:00am 28 31 mph 1026.4mb 50f
10:00am 25 29 mph 1026.1mb 50f
9:00am 24 26 mph 1025.2mb 50f
8:00am 24 29 mph 1023.8mb 50f
7:00am 26 29 mph 1022.7mb 50f
6:00am 24 26 mph 1021.7mb 51f
5:00am 24 25 mph 1021.2mb 51f
4:00am 16 17 mph 1020.7mb 51f
3:00am 18 20 mph 1020.3mb 50f
2:00am 17 18 mph 1020.4mb 51f
1:00am 20 23 mph 1020.1mb 50f
12:00am 22 24 mph 1020.4mb 50f
Thu 02/26 11:00pm 23 24 mph 1020.3mb 50f
10:00pm 20 23 mph 1019.8mb 51f
9:00pm 21 23 mph 1018.7mb 51f
8:00pm 18 21 mph 1017.9mb 52f
7:00pm 15 17 mph 1016.7mb 53f
6:00pm 16 17 mph 1015.2mb 52f
5:00pm 14 15 mph 1014.3mb 53f
4:00pm 15 17 mph 1013.1mb 56f
3:00pm 11 15 mph 1012.9mb 56f
2:00pm 14 16 mph 1012.3mb 56f
1:00pm 15 17 mph 1012.2mb 55f
12:00pm 16 17 mph 1012.2mb 56f
11:00am 14 16 mph 1011.4mb 57f
10:00am 9 11 mph 1010.7mb 63f
9:00am 10 14 mph 1009.8mb 63f
8:00am 7 9 mph 1008mb 62f
7:00am 11 16 mph 1006.7mb 64f
6:00am 16 25 mph 1005.1mb 65f
5:00am 10 15 mph 1004.9mb 67f
4:00am 11 15 mph 1003.6mb 69f
3:00am 20 24 mph 1002.3mb 71f
2:00am 22 31 mph 1002.9mb 70f
1:00am 22 32 mph 1003.2mb 70f
12:00am 18 25 mph 1003.6mb 69f
Wed 02/25 11:00pm 24 28 mph 1003.7mb 67f
10:00pm 16
mph
1005mb 60f
9:00pm 10 11 mph 1005.5mb 58f
8:00pm 8
mph
1006.5mb 56f
7:00pm 2 3 mph 1007.8mb 55f
6:00pm 1 2 mph 1008.4mb 54f
5:00pm 3 5 mph 1009.4mb 53f
4:00pm 6
mph
1010.3mb 54f
3:00pm 5
mph
1011.4mb 53f
2:00pm 6 8 mph 1012.3mb 52f
1:00pm 6 7 mph 1013.8mb 51f
12:00pm 10
mph
1015.1mb 51f
11:00am 10 13 mph 1016mb 51f
10:00am 14
mph
1016.9mb 52f
9:00am 10 11 mph 1015.9mb 52f
8:00am 10 11 mph 1016mb 52f
7:00am 9 10 mph 1015.7mb 51f
6:00am 13
mph
1014.9mb 51f
5:00am 7 8 mph 1014.6mb 51f
4:00am 7 9 mph 1014.4mb 50f